• Join FlightAware (Why Join?)
  • Login
  • US Flag 
Trick or treat! (Boo!!) 
08:23AM EDT


 

Airport Tracker/Info


-or-


 

Live Flight TrackerFlight Track Log ✈ UCA3598 ✈ 06-Apr-2014 ✈ KIAD - KBGM

Flight Track Log - Related Links

Times and Time Zones

All times are in EDT time to prevent confusion due to time zone crossing. See the UCA3598 flight status page for this flight to view local times or setup timezone preferences in your user account.

Time Position Orientation Groundspeed Altitude Reporting Facility
EDT Latitude Longitude Course Direction KTS MPH feet Rate Location/Type
10:19PM 38.9500 -77.5000 322° Northwest 150 173 1,500  Level Potomac TRACON
10:20PM 38.9833 -77.5333 322° Northwest 170 196 3,300 1,800 Climbing Potomac TRACON
10:22PM 39.0558 -77.5589 345° North 174 200 6,300 1,800 Climbing Washington Center
10:23PM 39.1078 -77.5658 354° North 174 200 8,200 1,800 Climbing Washington Center
10:24PM 39.1575 -77.5750 352° North 174 200 10,000 1,680 Climbing Washington Center
10:25PM 39.2100 -77.5631 10° North 181 208 11,600 1,560 Climbing Washington Center
10:26PM 39.2622 -77.5483 12° North 181 208 13,200 1,560 Climbing Washington Center
10:27PM 39.3208 -77.5339 11° North 186 214 14,800 1,380 Climbing Washington Center
10:28PM 39.3775 -77.5194 11° North 199 229 16,000 600 Climbing Washington Center
10:29PM 39.4483 -77.5050 North 225 259 16,000  Level Washington Center
10:30PM 39.5258 -77.4856 11° North 259 298 16,000 420 Level Washington Center
10:32PM 39.6583 -77.4508 11° North 286 329 17,200 840 Climbing New York Center
10:33PM 39.7239 -77.4183 21° North 255 293 18,300 840 Climbing New York Center
10:34PM 39.7900 -77.3842 22° Northeast 255 293 19,000 300 Climbing New York Center
10:35PM 39.8706 -77.3431 21° North 288 331 19,000  Level New York Center
10:36PM 39.9489 -77.3039 21° North 297 342 19,000  Level New York Center
10:37PM 40.0269 -77.2639 21° North 300 345 19,000  Level New York Center
10:38PM 40.1053 -77.2247 21° North 300 345 19,000  Level New York Center
10:39PM 40.1836 -77.1842 22° Northeast 301 346 19,000  Level New York Center
10:40PM 40.2683 -77.1406 21° North 302 348 19,000  Level New York Center
10:41PM 40.3467 -77.1000 22° Northeast 302 348 19,000  Level New York Center
10:42PM 40.4256 -77.0600 21° North 302 348 19,000  Level New York Center
10:43PM 40.5042 -77.0192 22° Northeast 302 348 19,000  Level New York Center
10:44PM 40.5817 -76.9792 21° North 300 345 19,000  Level New York Center
10:45PM 40.6644 -76.9356 22° Northeast 299 344 19,000  Level New York Center
10:46PM 40.7425 -76.8950 21° North 300 345 19,000  Level New York Center
10:47PM 40.8203 -76.8533 22° Northeast 301 346 19,000  Level New York Center
10:48PM 40.8978 -76.8128 22° Northeast 301 346 19,000  Level New York Center
10:49PM 40.9681 -76.7764 21° North 303 349 19,000  Level New York Center
10:50PM 41.0461 -76.7358 21° North 302 348 19,000  Level New York Center
10:51PM 41.1242 -76.6953 21° North 302 348 19,000  Level New York Center
10:52PM 41.2133 -76.6467 22° Northeast 298 343 19,000 -300 Level New York Center
10:53PM 41.2953 -76.6031 22° Northeast 299 344 18,400 -720 Descending New York Center
10:54PM 41.3708 -76.5619 22° Northeast 304 350 17,600 -720 Descending New York Center
10:55PM 41.4525 -76.5186 22° Northeast 302 348 17,000 -300 Descending New York Center
10:56PM 41.5317 -76.4764 22° Northeast 294 338 17,000 -540 Level New York Center
10:57PM 41.6047 -76.4372 22° Northeast 293 337 16,000 -1,260 Descending New York Center
10:58PM 41.6833 -76.3953 22° Northeast 293 337 14,500 -1,500 Descending New York Center
10:59PM 41.7567 -76.3556 22° Northeast 293 337 13,000 -780 Descending New York Center
11:00PM 41.8350 -76.3136 22° Northeast 286 329 13,000 -600 Level New York Center
11:01PM 41.9111 -76.2725 22° Northeast 283 326 11,900 -1,380 Descending New York Center
11:02PM 41.9831 -76.2319 23° Northeast 290 334 10,300 -1,620 Descending New York Center
11:03PM 42.0531 -76.1942 22° Northeast 287 330 8,700 -1,680 Descending New York Center
11:04PM 42.1042 -76.1325 42° Northeast 273 314 6,900 -1,860 Descending New York Center
11:05PM 42.1053 -76.0417 89° East 247 284 5,000 -1,500 Descending New York Center
11:06PM 42.1106 -75.9611 85° East 232 267 3,900 -1,140 Descending New York Center
11:07PM 42.1458 -75.9225 39° Northeast 193 222 2,800 -900 Descending New York Center
11:08PM 42.1792 -75.9536 325° Northwest 158 182 2,200 -600 Descending New York Center
11:10PM 42.2000 -75.9667 North  Level FlightAware Approximate
11:17PM 42.2084 -75.9796 North  Level Estimated